Time;durP1;ratioP1;P1;durP2;ratioP2;P2;SDS_P1;SDS_P2;PMS_P1;PMS_P2;Temp;Humidity;BMP_temperature;BMP_pressure;BME280_temperature;BME280_humidity;BME280_pressure;Samples;Min_cycle;Max_cycle;Signal;HPM_P1;HPM_P2
2023/10/15 00:00:46;;;;;;;20.35;6.53;;;;;;;5.47;100.00;101685.91;5034303;28;20115;-66
2023/10/15 00:03:11;;;;;;;21.35;6.80;;;;;;;5.49;100.00;101690.38;5034472;28;20038;-63
2023/10/15 00:05:36;;;;;;;20.83;6.60;;;;;;;5.54;100.00;101687.94;5034540;28;20033;-65
2023/10/15 00:08:02;;;;;;;21.50;6.80;;;;;;;5.63;100.00;101693.53;5033136;28;20030;-63
2023/10/15 00:10:30;;;;;;;18.98;6.35;;;;;;;5.78;100.00;101714.19;5033342;28;20349;-63
2023/10/15 00:12:57;;;;;;;21.20;6.68;;;;;;;5.92;100.00;101723.47;5034729;28;20063;-63
2023/10/15 00:15:27;;;;;;;21.15;6.72;;;;;;;5.95;100.00;101722.72;5034120;28;20140;-63
2023/10/15 00:18:06;;;;;;;21.63;7.15;;;;;;;5.97;100.00;101720.13;5034364;28;20444;-63
2023/10/15 00:20:34;;;;;;;22.13;7.15;;;;;;;6.00;100.00;101715.03;5030801;28;20080;-63
2023/10/15 00:23:06;;;;;;;20.15;6.40;;;;;;;6.03;100.00;101709.91;5030332;28;20045;-63
2023/10/15 00:25:41;;;;;;;21.15;6.70;;;;;;;6.10;100.00;101723.31;5032909;28;20041;-63
2023/10/15 00:28:15;;;;;;;20.50;6.72;;;;;;;6.11;100.00;101721.59;5031066;28;20032;-63
2023/10/15 00:30:42;;;;;;;20.13;6.63;;;;;;;6.14;100.00;101719.06;5033838;28;20491;-63
2023/10/15 00:33:11;;;;;;;21.40;6.55;;;;;;;6.15;100.00;101706.84;5033978;28;20087;-63
2023/10/15 00:35:37;;;;;;;20.83;6.75;;;;;;;6.19;100.00;101709.63;5033721;28;20070;-63
2023/10/15 00:38:16;;;;;;;21.05;6.35;;;;;;;6.21;100.00;101710.56;5033847;28;20073;-62
2023/10/15 00:40:42;;;;;;;19.90;5.78;;;;;;;6.35;100.00;101713.69;5033768;28;20531;-63
2023/10/15 00:43:08;;;;;;;21.05;5.95;;;;;;;6.31;100.00;101708.28;5033036;28;20038;-63
2023/10/15 00:45:55;;;;;;;18.35;5.47;;;;;;;6.52;100.00;101709.03;5033693;28;20029;-63
2023/10/15 00:48:36;;;;;;;20.55;5.68;;;;;;;6.46;100.00;101679.91;5033301;28;20034;-63
2023/10/15 00:51:13;;;;;;;18.98;5.28;;;;;;;6.33;100.00;101685.59;5029785;28;20068;-63
2023/10/15 00:53:53;;;;;;;18.75;5.13;;;;;;;6.16;100.00;101696.41;5030717;28;20028;-70
2023/10/15 00:56:25;;;;;;;20.17;5.70;;;;;;;6.08;100.00;101703.97;5033349;28;20029;-66
2023/10/15 01:03:48;;;;;;;19.13;5.40;;;;;;;5.91;100.00;101689.31;5033351;28;20432;-70
2023/10/15 01:06:29;;;;;;;18.85;5.03;;;;;;;5.87;100.00;101692.69;5033154;28;20022;-68
2023/10/15 01:09:27;;;;;;;18.10;5.05;;;;;;;5.80;100.00;101701.16;5033335;28;20040;-68
2023/10/15 01:11:57;;;;;;;18.55;4.85;;;;;;;5.69;100.00;101695.50;5032637;28;20502;-68
2023/10/15 01:14:31;;;;;;;17.33;4.45;;;;;;;5.61;100.00;101692.59;5033345;28;20037;-69
2023/10/15 01:16:57;;;;;;;17.38;4.68;;;;;;;5.59;100.00;101695.16;5033222;28;20037;-69
2023/10/15 01:19:34;;;;;;;18.25;5.00;;;;;;;5.55;100.00;101690.63;5032951;28;20116;-67
2023/10/15 01:22:08;;;;;;;18.73;5.20;;;;;;;5.52;100.00;101686.97;5032918;28;20029;-69
2023/10/15 01:24:36;;;;;;;20.30;5.80;;;;;;;5.51;100.00;101690.44;5029905;28;20025;-70
2023/10/15 01:27:09;;;;;;;20.52;5.88;;;;;;;5.41;100.00;101681.31;5029334;28;20029;-70
2023/10/15 01:29:41;;;;;;;21.08;6.43;;;;;;;5.33;100.00;101688.91;5029538;28;20061;-69
2023/10/15 01:32:18;;;;;;;20.45;6.43;;;;;;;5.24;100.00;101684.19;5032980;28;20038;-68
2023/10/15 01:34:45;;;;;;;21.00;6.40;;;;;;;5.18;100.00;101691.78;5032874;28;20033;-69
2023/10/15 01:39:48;;;;;;;20.98;6.80;;;;;;;5.20;100.00;101694.50;5032683;28;20389;-68
2023/10/15 01:47:54;;;;;;;20.65;7.22;;;;;;;5.37;100.00;101726.59;5029867;28;20033;-69
2023/10/15 01:50:33;;;;;;;19.88;7.13;;;;;;;5.49;100.00;101723.56;5032794;28;20034;-68
2023/10/15 01:53:03;;;;;;;20.73;6.78;;;;;;;5.62;100.00;101727.56;5033147;28;20113;-66
2023/10/15 01:55:29;;;;;;;19.63;6.53;;;;;;;5.60;100.00;101714.41;5031800;28;20105;-68
2023/10/15 01:58:01;;;;;;;20.10;6.30;;;;;;;5.66;100.00;101705.88;5032485;28;20129;-66
2023/10/15 02:03:07;;;;;;;19.85;7.00;;;;;;;5.49;100.00;101700.88;5029632;28;20046;-66
2023/10/15 02:05:42;;;;;;;19.52;6.35;;;;;;;5.41;100.00;101697.06;5032699;28;20036;-69
2023/10/15 02:08:13;;;;;;;19.50;6.85;;;;;;;5.35;100.00;101702.06;5029326;28;20480;-68
2023/10/15 02:10:47;;;;;;;20.65;7.18;;;;;;;5.27;100.00;101696.53;5032642;28;20424;-63
2023/10/15 02:13:16;;;;;;;21.23;7.13;;;;;;;5.26;100.00;101693.81;5032637;28;20037;-69
2023/10/15 02:15:43;;;;;;;21.33;7.30;;;;;;;5.19;100.00;101685.72;5032452;28;20116;-66
2023/10/15 02:18:14;;;;;;;20.85;7.22;;;;;;;5.18;100.00;101681.31;5033284;28;20103;-65
2023/10/15 02:20:46;;;;;;;20.98;7.80;;;;;;;5.14;100.00;101686.38;5036275;28;20030;-66
2023/10/15 02:23:12;;;;;;;20.45;7.57;;;;;;;5.11;100.00;101681.91;5036772;28;20034;-69
2023/10/15 02:25:52;;;;;;;21.50;7.95;;;;;;;5.06;100.00;101675.59;5036225;28;20040;-65
2023/10/15 02:28:24;;;;;;;21.92;7.57;;;;;;;5.07;100.00;101680.00;5036557;28;20033;-69
2023/10/15 02:30:50;;;;;;;21.25;7.60;;;;;;;5.13;100.00;101680.25;5036311;28;20033;-64
2023/10/15 02:33:17;;;;;;;22.85;7.80;;;;;;;5.17;100.00;101686.47;5036349;28;20025;-65
2023/10/15 02:35:47;;;;;;;19.85;7.15;;;;;;;5.23;100.00;101692.88;5034775;28;20033;-66
2023/10/15 02:38:13;;;;;;;20.25;7.32;;;;;;;5.17;100.00;101673.38;5036037;28;20034;-65
2023/10/15 02:43:27;;;;;;;21.17;6.95;;;;;;;5.15;100.00;101681.19;5036187;28;20049;-65
2023/10/15 02:45:53;;;;;;;20.58;6.90;;;;;;;5.15;100.00;101683.81;5036066;28;20036;-66
2023/10/15 02:48:22;;;;;;;21.17;7.10;;;;;;;5.19;100.00;101684.84;5035843;28;20034;-67
2023/10/15 02:51:01;;;;;;;21.02;7.45;;;;;;;5.23;100.00;101679.78;5036002;28;20025;-66
2023/10/15 02:53:28;;;;;;;22.30;7.25;;;;;;;5.25;100.00;101685.06;5035980;28;20041;-67
2023/10/15 02:55:58;;;;;;;21.05;7.43;;;;;;;5.41;100.00;101739.91;5035915;28;20033;-65
2023/10/15 02:58:30;;;;;;;20.85;7.90;;;;;;;5.43;100.00;101742.56;5035674;28;20025;-66
2023/10/15 03:00:59;;;;;;;21.63;8.60;;;;;;;5.51;100.00;101743.78;5035507;28;20053;-67
2023/10/15 03:03:33;;;;;;;21.88;8.15;;;;;;;5.58;100.00;101727.47;5036054;28;20056;-65
2023/10/15 03:05:58;;;;;;;21.88;9.45;;;;;;;5.62;100.00;101733.72;5035546;28;20064;-66
2023/10/15 03:08:30;;;;;;;21.88;11.20;;;;;;;5.73;100.00;101740.25;5035561;28;20104;-66
2023/10/15 03:11:01;;;;;;;21.02;9.80;;;;;;;5.78;100.00;101753.56;5035645;28;20211;-66
2023/10/15 03:13:28;;;;;;;23.60;11.43;;;;;;;5.89;100.00;101753.97;5035898;28;20040;-66
2023/10/15 03:15:57;;;;;;;21.73;10.38;;;;;;;5.92;100.00;101754.97;5035344;28;20038;-66
2023/10/15 03:18:23;;;;;;;21.17;8.98;;;;;;;5.95;100.00;101754.19;5035660;28;20025;-68
2023/10/15 03:21:00;;;;;;;19.73;7.80;;;;;;;6.00;100.00;101762.28;5035470;28;20379;-70
2023/10/15 03:23:25;;;;;;;20.23;6.60;;;;;;;5.99;100.00;101756.16;5035837;28;20397;-66
2023/10/15 03:25:57;;;;;;;17.90;6.07;;;;;;;6.03;100.00;101772.91;5035273;28;20059;-66
2023/10/15 03:28:24;;;;;;;19.55;5.85;;;;;;;6.00;100.00;101763.19;5035190;28;20428;-69
2023/10/15 03:30:54;;;;;;;14.73;4.30;;;;;;;5.91;100.00;101750.59;5034552;28;20491;-69
2023/10/15 03:33:22;;;;;;;15.75;4.30;;;;;;;5.83;100.00;101757.25;5035048;28;20559;-66
2023/10/15 03:35:54;;;;;;;17.52;4.80;;;;;;;5.80;100.00;101761.50;5034960;28;20055;-69
2023/10/15 03:38:23;;;;;;;15.15;4.57;;;;;;;5.84;100.00;101747.66;5035427;28;20033;-69
2023/10/15 03:40:50;;;;;;;16.90;4.63;;;;;;;5.79;100.00;101752.72;5035442;28;20108;-66
2023/10/15 03:43:21;;;;;;;14.57;4.28;;;;;;;5.75;100.00;101761.31;5034960;28;20029;-69
2023/10/15 03:45:56;;;;;;;14.40;4.20;;;;;;;5.83;100.00;101752.00;5034753;28;20030;-69
2023/10/15 03:48:29;;;;;;;15.02;4.10;;;;;;;5.76;100.00;101739.50;5034976;28;20033;-67
2023/10/15 03:50:58;;;;;;;14.07;4.10;;;;;;;5.76;100.00;101740.38;5034849;28;20028;-63
2023/10/15 03:53:28;;;;;;;15.07;4.25;;;;;;;5.70;100.00;101748.03;5034644;28;20505;-63
2023/10/15 03:56:04;;;;;;;16.17;4.38;;;;;;;5.68;100.00;101754.03;5034492;28;20083;-63
2023/10/15 03:58:32;;;;;;;12.82;4.30;;;;;;;5.72;100.00;101761.19;5034775;28;20071;-63
2023/10/15 04:01:46;;;;;;;14.82;4.72;;;;;;;5.77;100.00;101770.16;5034281;28;20046;-63
2023/10/15 04:03:47;;;;;;;14.57;4.70;;;;;;;5.79;100.00;101778.09;5029717;28;20049;-63
2023/10/15 04:06:13;;;;;;;16.67;4.95;;;;;;;5.71;100.00;101781.31;5034378;28;20080;-63
2023/10/15 04:08:39;;;;;;;15.15;5.10;;;;;;;5.72;100.00;101790.97;5034486;28;20030;-63
2023/10/15 04:11:06;;;;;;;16.40;5.32;;;;;;;5.73;100.00;101781.34;5034764;28;20032;-64
2023/10/15 04:13:32;;;;;;;16.83;5.53;;;;;;;5.67;100.00;101789.88;5030591;28;20048;-64
2023/10/15 04:15:58;;;;;;;18.13;5.95;;;;;;;5.65;100.00;101780.16;5034319;28;20041;-63
2023/10/15 04:18:24;;;;;;;18.20;6.35;;;;;;;5.63;100.00;101776.59;5034135;28;20424;-63
2023/10/15 04:20:54;;;;;;;19.73;6.85;;;;;;;5.61;100.00;101792.28;5032744;28;20041;-63
2023/10/15 04:23:31;;;;;;;19.40;6.78;;;;;;;5.55;100.00;101787.66;5034282;28;20105;-63
2023/10/15 04:26:01;;;;;;;19.20;7.72;;;;;;;5.52;100.00;101789.25;5034252;28;20369;-63
2023/10/15 04:28:28;;;;;;;21.42;8.68;;;;;;;5.48;100.00;101780.38;5034199;28;20056;-63
2023/10/15 04:30:53;;;;;;;17.10;5.20;;;;;;;5.51;100.00;101759.53;5033920;28;20029;-63
2023/10/15 04:33:20;;;;;;;16.25;5.28;;;;;;;5.49;100.00;101748.09;5049423;28;20116;-63
2023/10/15 04:35:49;;;;;;;18.23;5.55;;;;;;;5.54;100.00;101751.78;5033754;28;20461;-63
2023/10/15 04:38:21;;;;;;;17.95;6.10;;;;;;;5.46;100.00;101753.22;5033857;28;20036;-63
2023/10/15 04:43:25;;;;;;;21.00;9.40;;;;;;;5.38;100.00;101775.59;5033317;28;20464;-64
2023/10/15 04:45:51;;;;;;;22.58;11.82;;;;;;;5.41;100.00;101768.75;5033634;28;20057;-64
2023/10/15 04:48:25;;;;;;;24.05;12.80;;;;;;;5.46;100.00;101761.09;5033557;28;20064;-65
2023/10/15 04:50:51;;;;;;;23.27;12.60;;;;;;;5.46;100.00;101758.47;5033546;28;20496;-64
2023/10/15 04:55:45;;;;;;;22.27;11.10;;;;;;;5.46;100.00;101727.00;5032653;28;20041;-65
2023/10/15 04:58:11;;;;;;;21.75;10.90;;;;;;;5.50;100.00;101728.88;5033692;28;20388;-64
2023/10/15 05:00:41;;;;;;;21.85;10.20;;;;;;;5.47;100.00;101728.75;5033456;28;20050;-63
2023/10/15 05:03:06;;;;;;;20.42;9.50;;;;;;;5.44;100.00;101718.16;5029957;28;20547;-63
2023/10/15 05:05:32;;;;;;;21.23;9.30;;;;;;;5.40;100.00;101724.09;5033269;28;20137;-63
2023/10/15 05:08:00;;;;;;;19.70;8.55;;;;;;;5.39;100.00;101722.34;5033701;28;20030;-64
2023/10/15 05:10:33;;;;;;;21.17;8.35;;;;;;;5.40;100.00;101729.34;5033169;28;20030;-63
2023/10/15 05:12:59;;;;;;;19.77;7.00;;;;;;;5.39;100.00;101735.44;5033478;28;20036;-65
2023/10/15 05:15:25;;;;;;;18.90;6.80;;;;;;;5.38;100.00;101733.66;5033554;28;20037;-65
2023/10/15 05:17:50;;;;;;;19.48;6.97;;;;;;;5.42;100.00;101738.19;5033329;28;20029;-63
2023/10/15 05:20:16;;;;;;;20.52;6.93;;;;;;;5.47;100.00;101735.75;5033038;28;20041;-64
2023/10/15 05:22:41;;;;;;;18.50;6.22;;;;;;;5.43;100.00;101758.31;5033188;28;20373;-64
2023/10/15 05:25:15;;;;;;;20.10;7.07;;;;;;;5.57;100.00;101774.63;5033227;28;20031;-66
2023/10/15 05:27:42;;;;;;;16.73;5.50;;;;;;;5.64;100.00;101779.28;5029965;28;20025;-68
2023/10/15 05:30:09;;;;;;;18.15;5.22;;;;;;;5.68;100.00;101790.75;5031854;28;20419;-67
2023/10/15 05:32:35;;;;;;;15.80;4.43;;;;;;;5.63;100.00;101789.72;5031642;28;20032;-64
2023/10/15 05:35:01;;;;;;;15.48;3.60;;;;;;;5.74;100.00;101809.41;5033037;28;20037;-64
2023/10/15 05:37:27;;;;;;;12.38;3.50;;;;;;;5.70;100.00;101807.47;5032899;28;20037;-63
2023/10/15 05:39:52;;;;;;;15.52;3.80;;;;;;;5.68;100.00;101817.00;5033050;28;20037;-64
2023/10/15 05:42:18;;;;;;;14.07;3.38;;;;;;;5.63;100.00;101822.06;5032744;28;20025;-64
2023/10/15 05:44:44;;;;;;;10.68;2.92;;;;;;;5.62;100.00;101828.19;5032963;28;20091;-64
2023/10/15 05:47:09;;;;;;;6.78;2.40;;;;;;;5.57;100.00;101809.59;5047981;28;20079;-64
2023/10/15 05:49:37;;;;;;;10.80;2.67;;;;;;;5.48;100.00;101814.47;5032937;28;20055;-64
2023/10/15 05:52:03;;;;;;;10.20;2.53;;;;;;;5.30;100.00;101798.00;5033032;28;20025;-64
2023/10/15 05:54:28;;;;;;;9.60;2.50;;;;;;;5.10;100.00;101792.84;5032492;28;20033;-64
2023/10/15 05:56:53;;;;;;;9.35;2.50;;;;;;;5.09;100.00;101793.66;5032393;28;20350;-64
2023/10/15 05:59:19;;;;;;;10.38;2.70;;;;;;;4.95;100.00;101785.22;5031340;28;20056;-64
2023/10/15 06:01:44;;;;;;;9.40;2.58;;;;;;;4.89;100.00;101790.19;5032898;28;20033;-64
2023/10/15 06:04:09;;;;;;;11.38;2.60;;;;;;;4.93;100.00;101806.94;5032447;28;20028;-63
2023/10/15 06:06:36;;;;;;;7.82;2.45;;;;;;;4.96;100.00;101807.06;5031428;28;20029;-64
2023/10/15 06:09:05;;;;;;;9.88;2.50;;;;;;;5.01;100.00;101810.75;5032352;28;20036;-64
2023/10/15 06:11:30;;;;;;;7.43;2.45;;;;;;;5.00;100.00;101814.25;5032370;28;20021;-64
2023/10/15 06:13:56;;;;;;;10.43;2.80;;;;;;;4.96;100.00;101809.69;5032846;28;20116;-64
2023/10/15 06:16:21;;;;;;;8.80;2.80;;;;;;;4.97;100.00;101812.38;5032540;28;20060;-65
2023/10/15 06:18:47;;;;;;;12.38;2.90;;;;;;;4.97;100.00;101798.41;5032481;28;20030;-65
2023/10/15 06:21:14;;;;;;;11.98;3.28;;;;;;;5.03;100.00;101817.88;5032327;28;20061;-65
2023/10/15 06:23:39;;;;;;;13.95;3.10;;;;;;;4.99;100.00;101815.06;5032326;28;20057;-65
2023/10/15 06:26:06;;;;;;;12.43;3.13;;;;;;;5.00;100.00;101820.38;5032503;28;20056;-65
2023/10/15 06:28:32;;;;;;;13.13;3.40;;;;;;;5.00;100.00;101829.97;5032199;28;20030;-66
2023/10/15 06:30:57;;;;;;;14.10;3.40;;;;;;;5.01;100.00;101842.22;5032363;28;20040;-65
2023/10/15 06:33:22;;;;;;;14.15;3.30;;;;;;;5.02;100.00;101836.16;5032447;28;20473;-65
2023/10/15 06:35:48;;;;;;;12.48;3.40;;;;;;;5.04;100.00;101834.50;5032008;28;20117;-65
2023/10/15 06:38:17;;;;;;;11.90;3.50;;;;;;;5.09;100.00;101837.31;5029226;28;20507;-68
2023/10/15 06:40:43;;;;;;;11.90;3.60;;;;;;;5.10;100.00;101833.84;5032146;28;20030;-67
2023/10/15 06:43:09;;;;;;;16.30;3.67;;;;;;;5.09;100.00;101832.97;5031916;28;20029;-67
2023/10/15 06:45:34;;;;;;;13.23;3.80;;;;;;;5.09;100.00;101834.72;5031905;28;20025;-66
2023/10/15 06:48:01;;;;;;;11.80;3.65;;;;;;;5.05;100.00;101833.66;5032079;28;20029;-67
2023/10/15 06:50:27;;;;;;;14.02;3.72;;;;;;;5.01;100.00;101832.66;5033848;28;20391;-66
2023/10/15 06:52:53;;;;;;;12.30;3.95;;;;;;;5.05;100.00;101833.66;5045096;28;20029;-64
2023/10/15 06:55:21;;;;;;;16.38;3.97;;;;;;;5.02;100.00;101823.06;5040985;28;20041;-68
2023/10/15 06:57:47;;;;;;;13.35;3.90;;;;;;;5.03;100.00;101827.47;5031870;28;20571;-66
2023/10/15 07:00:21;;;;;;;14.05;4.10;;;;;;;5.10;100.00;101841.72;5031636;28;20124;-68
2023/10/15 07:02:47;;;;;;;15.52;4.38;;;;;;;5.18;100.00;101850.81;5032226;28;20072;-67
2023/10/15 07:05:13;;;;;;;14.93;4.10;;;;;;;5.20;100.00;101846.56;5032375;28;20088;-67
2023/10/15 07:07:38;;;;;;;14.35;4.07;;;;;;;5.15;100.00;101858.56;5035220;28;20030;-67
2023/10/15 07:10:07;;;;;;;14.90;3.83;;;;;;;5.22;100.00;101861.50;5035720;28;20504;-69
2023/10/15 07:12:34;;;;;;;13.63;4.00;;;;;;;5.28;100.00;101862.59;5035360;28;20091;-68
2023/10/15 07:14:59;;;;;;;15.27;3.90;;;;;;;5.34;100.00;101858.47;5035351;28;20026;-64
2023/10/15 07:17:25;;;;;;;17.48;4.07;;;;;;;5.34;100.00;101873.34;5034873;28;20219;-65
2023/10/15 07:19:51;;;;;;;13.57;4.05;;;;;;;5.42;100.00;101869.31;5035107;28;20048;-64
2023/10/15 07:22:16;;;;;;;15.90;4.20;;;;;;;5.47;100.00;101869.50;5034906;28;20029;-64
2023/10/15 07:24:41;;;;;;;15.70;4.10;;;;;;;5.66;100.00;101864.16;5050319;28;20029;-64
2023/10/15 07:27:07;;;;;;;15.60;4.47;;;;;;;6.02;100.00;101874.38;5034864;28;20032;-64
2023/10/15 07:29:32;;;;;;;17.17;4.78;;;;;;;6.05;100.00;101884.13;5034551;28;20436;-64
2023/10/15 07:31:59;;;;;;;17.90;4.38;;;;;;;6.07;100.00;101887.69;5035248;28;20113;-64
2023/10/15 07:34:24;;;;;;;16.73;4.10;;;;;;;5.99;100.00;101895.28;5034976;28;20025;-64
2023/10/15 07:36:55;;;;;;;16.25;3.60;;;;;;;6.00;100.00;101902.31;5034756;28;20087;-64
2023/10/15 07:39:22;;;;;;;17.00;4.22;;;;;;;5.90;100.00;101903.63;5035222;28;20044;-64
2023/10/15 10:39:49;;;;;;;10.60;2.25;;;;;;;8.30;100.00;102100.06;5130878;27;20397;-72
2023/10/15 10:42:23;;;;;;;9.43;2.40;;;;;;;9.20;100.00;102093.28;5130753;27;20039;-74
2023/10/15 10:44:48;;;;;;;10.02;2.30;;;;;;;10.89;100.00;102087.13;5130832;27;20125;-78
2023/10/15 10:47:19;;;;;;;8.63;2.10;;;;;;;11.24;100.00;102079.97;5130430;27;20024;-73
2023/10/15 10:50:00;;;;;;;8.90;2.10;;;;;;;11.17;100.00;102075.41;5130723;27;20484;-74
2023/10/15 10:52:36;;;;;;;10.48;2.10;;;;;;;11.32;100.00;102081.00;5127133;28;20051;-72
2023/10/15 10:55:30;;;;;;;10.60;2.10;;;;;;;11.51;100.00;102076.09;5130468;27;20028;-73
2023/10/15 10:57:56;;;;;;;9.50;1.90;;;;;;;11.05;100.00;102073.38;5127009;28;20031;-73
2023/10/15 11:00:21;;;;;;;11.63;2.17;;;;;;;10.93;100.00;102075.75;5130527;27;20034;-70
2023/10/15 11:02:48;;;;;;;9.23;2.17;;;;;;;10.51;100.00;102082.72;5130544;27;20030;-72
2023/10/15 11:05:14;;;;;;;8.60;2.00;;;;;;;10.03;100.00;102080.59;5130376;27;20031;-70
2023/10/15 11:07:40;;;;;;;8.82;2.20;;;;;;;9.71;100.00;102086.81;5130237;27;20020;-69
2023/10/15 11:10:07;;;;;;;10.15;2.22;;;;;;;9.73;100.00;102081.56;5129181;28;20035;-70
2023/10/15 11:12:32;;;;;;;9.13;2.10;;;;;;;9.84;100.00;102097.69;5130148;27;20030;-76
2023/10/15 11:14:58;;;;;;;8.23;2.10;;;;;;;9.84;100.00;102097.69;5130396;27;20035;-78
2023/10/15 11:17:24;;;;;;;10.45;2.33;;;;;;;9.64;100.00;102094.50;5130347;27;20484;-74
2023/10/15 11:19:50;;;;;;;7.78;2.10;;;;;;;9.68;100.00;102088.47;5125952;28;20036;-76
2023/10/15 11:22:15;;;;;;;9.43;2.05;;;;;;;9.93;100.00;102090.00;5129939;27;20030;-70
2023/10/15 11:24:43;;;;;;;9.32;2.00;;;;;;;10.41;100.00;102073.69;5130161;27;20377;-69
2023/10/15 11:27:12;;;;;;;8.52;2.17;;;;;;;10.77;100.00;102090.38;5129642;28;20119;-75
2023/10/15 11:29:37;;;;;;;7.63;2.00;;;;;;;10.71;100.00;102093.78;5129863;27;20038;-70
2023/10/15 11:32:06;;;;;;;11.32;2.20;;;;;;;10.62;100.00;102091.81;5130035;27;20028;-72
2023/10/15 11:34:33;;;;;;;10.73;2.15;;;;;;;10.49;100.00;102099.41;5129632;27;20080;-70
2023/10/15 11:37:01;;;;;;;9.50;2.17;;;;;;;10.23;100.00;102108.41;5128559;28;20035;-76
2023/10/15 11:39:37;;;;;;;6.90;1.90;;;;;;;10.11;100.00;102106.34;5123442;27;20035;-73
2023/10/15 11:42:03;;;;;;;7.03;1.80;;;;;;;10.37;100.00;102113.19;5116240;28;20020;-73
2023/10/15 11:44:32;;;;;;;8.70;2.10;;;;;;;12.36;100.00;102110.41;5115837;28;20469;-70
2023/10/15 11:47:00;;;;;;;10.00;2.00;;;;;;;14.73;100.00;102100.88;5115864;27;20051;-72
2023/10/15 11:49:26;;;;;;;7.38;1.90;;;;;;;15.95;100.00;102095.25;5115980;28;20504;-70
2023/10/15 11:51:56;;;;;;;8.23;1.95;;;;;;;16.83;100.00;102089.91;5115724;28;20521;-73
2023/10/15 11:54:28;;;;;;;7.65;1.90;;;;;;;16.76;100.00;102093.47;5111604;28;20028;-71
2023/10/15 11:56:54;;;;;;;6.90;1.90;;;;;;;16.07;100.00;102091.72;5112205;28;20027;-71
2023/10/15 11:59:21;;;;;;;8.40;1.90;;;;;;;14.85;100.00;102085.88;5111445;28;20028;-74
2023/10/15 12:01:51;;;;;;;9.57;1.83;;;;;;;14.04;100.00;102089.66;5115511;28;20036;-71
2023/10/15 12:04:17;;;;;;;7.68;1.90;;;;;;;15.48;100.00;102089.75;5115759;27;20110;-74
2023/10/15 12:06:43;;;;;;;5.93;1.75;;;;;;;17.16;100.00;102090.75;5115474;28;20030;-71
2023/10/15 12:09:12;;;;;;;27.88;19.25;;;;;;;17.03;100.00;102096.13;5115159;28;20043;-73
2023/10/15 12:11:41;;;;;;;10.13;2.00;;;;;;;17.08;100.00;102093.41;5115575;28;20054;-70
2023/10/15 12:14:06;;;;;;;6.28;1.88;;;;;;;17.86;100.00;102096.66;5115524;28;20023;-73
2023/10/15 12:16:34;;;;;;;8.80;1.70;;;;;;;19.36;100.00;102096.22;5115320;28;20027;-74
2023/10/15 12:18:59;;;;;;;9.32;2.13;;;;;;;20.59;97.47;102101.56;5115410;28;20023;-71
2023/10/15 12:21:24;;;;;;;5.72;1.88;;;;;;;21.56;71.95;102104.19;5115479;28;20065;-75
2023/10/15 12:23:50;;;;;;;8.93;2.00;;;;;;;20.15;74.82;102101.41;5115437;28;20023;-72
2023/10/15 12:26:15;;;;;;;6.50;1.90;;;;;;;18.54;99.62;102104.22;5115324;28;20164;-70
2023/10/15 12:28:45;;;;;;;11.25;2.00;;;;;;;17.38;100.00;102099.56;5115297;28;20086;-71
2023/10/15 12:31:11;;;;;;;8.10;2.00;;;;;;;16.14;100.00;102098.84;5115027;28;20019;-71
2023/10/15 12:33:38;;;;;;;6.35;1.85;;;;;;;15.94;100.00;102085.47;5115151;28;20028;-71
2023/10/15 12:36:07;;;;;;;6.53;1.88;;;;;;;17.20;100.00;102095.19;5115015;28;20098;-74
2023/10/15 12:38:33;;;;;;;8.95;1.95;;;;;;;18.18;98.40;102106.28;5114490;28;20074;-73
2023/10/15 12:41:00;;;;;;;11.95;2.03;;;;;;;18.79;84.25;102099.50;5115045;28;20063;-75
2023/10/15 12:43:26;;;;;;;8.88;1.80;;;;;;;17.90;75.97;102107.34;5115275;28;20028;-71
2023/10/15 12:45:52;;;;;;;9.20;1.95;;;;;;;16.98;93.88;102092.59;5114712;27;20028;-71
2023/10/15 12:48:19;;;;;;;7.72;1.90;;;;;;;18.55;94.44;102089.91;5114743;28;20048;-77
2023/10/15 12:50:48;;;;;;;10.57;2.00;;;;;;;19.70;69.91;102101.13;5113890;28;20031;-73
2023/10/15 12:53:15;;;;;;;9.13;1.90;;;;;;;19.63;62.10;102102.09;5113148;28;20114;-74
2023/10/15 12:55:40;;;;;;;6.70;1.90;;;;;;;18.52;77.54;102090.81;5114362;28;20055;-71
2023/10/15 12:58:05;;;;;;;6.95;1.90;;;;;;;19.51;70.25;102095.13;5114662;28;20100;-70
2023/10/15 13:00:32;;;;;;;7.30;1.90;;;;;;;20.70;67.62;102104.09;5113951;27;20035;-73
2023/10/15 13:02:58;;;;;;;4.95;1.80;;;;;;;20.96;62.44;102106.28;5114287;28;20594;-71
2023/10/15 13:05:25;;;;;;;9.10;1.90;;;;;;;21.19;60.45;102118.41;5114595;28;20027;-76
2023/10/15 13:07:52;;;;;;;6.93;1.80;;;;;;;20.38;61.63;102121.59;5114711;28;20084;-72
2023/10/15 13:10:19;;;;;;;9.00;2.15;;;;;;;21.04;66.49;102112.41;5114883;28;20019;-71
2023/10/15 13:12:46;;;;;;;9.68;2.08;;;;;;;21.69;56.74;102115.59;5114262;28;20504;-77
2023/10/15 13:15:13;;;;;;;6.32;1.80;;;;;;;22.16;55.92;102118.97;5113957;27;20030;-72
2023/10/15 13:17:39;;;;;;;7.50;2.00;;;;;;;22.15;52.77;102113.63;5112879;28;20092;-70
2023/10/15 13:20:11;;;;;;;7.93;2.00;;;;;;;22.48;51.95;102117.31;5114211;28;20416;-71
2023/10/15 13:22:37;;;;;;;;;;;;;;;23.39;53.85;102122.09;5114457;28;20034;-70
2023/10/15 13:25:04;;;;;;;8.82;2.03;;;;;;;22.34;50.39;102122.16;5113926;28;19908;-72
2023/10/15 13:27:29;;;;;;;5.78;2.08;;;;;;;22.33;50.17;102118.59;5112679;28;20034;-71
2023/10/15 13:29:56;;;;;;;9.20;2.20;;;;;;;23.52;48.94;102120.78;5112647;28;20028;-71
2023/10/15 13:32:21;;;;;;;9.50;2.20;;;;;;;24.25;47.40;102121.25;5109855;28;20127;-70
2023/10/15 13:34:46;;;;;;;8.73;2.00;;;;;;;24.76;46.35;102127.69;5112591;28;20027;-70
2023/10/15 13:37:13;;;;;;;7.78;2.00;;;;;;;25.42;45.92;102124.41;5113738;28;20032;-70
2023/10/15 13:39:39;;;;;;;9.48;2.05;;;;;;;24.29;46.07;102126.50;5113513;28;20445;-72
2023/10/15 13:42:05;;;;;;;7.63;2.00;;;;;;;22.45;48.34;102126.38;5113822;28;20040;-70
2023/10/15 13:44:31;;;;;;;8.52;2.15;;;;;;;20.72;49.82;102131.78;5113472;28;20024;-72
2023/10/15 13:46:57;;;;;;;10.10;2.00;;;;;;;19.04;55.94;102126.94;5114052;28;20107;-72
2023/10/15 13:49:23;;;;;;;8.38;2.00;;;;;;;18.04;66.02;102134.03;5113784;28;20554;-73
2023/10/15 13:51:49;;;;;;;9.75;2.28;;;;;;;17.16;89.25;102134.38;5113431;28;20059;-72
2023/10/15 13:54:15;;;;;;;9.07;2.20;;;;;;;16.37;100.00;102134.41;5113594;28;20062;-71
2023/10/15 13:56:43;;;;;;;8.60;2.17;;;;;;;15.88;100.00;102131.66;5113383;28;20034;-71
2023/10/15 13:59:09;;;;;;;9.77;2.10;;;;;;;15.37;100.00;102133.22;5113213;28;20036;-70
2023/10/15 14:01:37;;;;;;;9.70;2.00;;;;;;;14.74;100.00;102126.63;5112273;28;20035;-75
2023/10/15 14:04:04;;;;;;;10.40;1.90;;;;;;;14.03;100.00;102135.72;5113257;28;20019;-72
2023/10/15 14:06:29;;;;;;;6.57;1.92;;;;;;;13.59;100.00;102129.03;5113170;28;20063;-76
2023/10/15 14:08:54;;;;;;;10.10;1.80;;;;;;;13.19;100.00;102132.03;5113641;28;20429;-75
2023/10/15 14:11:20;;;;;;;9.20;2.00;;;;;;;12.58;100.00;102141.69;5113173;28;20038;-73
2023/10/15 14:13:46;;;;;;;5.70;1.80;;;;;;;12.37;100.00;102143.09;5113110;28;20024;-74
2023/10/15 14:16:13;;;;;;;7.47;1.80;;;;;;;11.70;100.00;102146.22;5113346;28;20076;-71
2023/10/15 14:18:38;;;;;;;8.15;2.00;;;;;;;11.48;100.00;102145.78;5113109;28;20046;-74
2023/10/15 14:21:04;;;;;;;6.78;1.85;;;;;;;11.24;100.00;102138.22;5111782;28;20470;-74
2023/10/15 14:23:29;;;;;;;9.13;2.05;;;;;;;10.81;100.00;102143.38;5113279;28;20100;-71
2023/10/15 14:25:55;;;;;;;11.70;2.05;;;;;;;10.58;100.00;102142.81;5113044;28;20062;-74
2023/10/15 14:28:20;;;;;;;12.10;1.90;;;;;;;10.33;100.00;102148.34;5112766;28;20032;-70
2023/10/15 14:30:46;;;;;;;11.93;2.30;;;;;;;10.19;100.00;102145.31;5113252;28;20667;-75
2023/10/15 14:33:12;;;;;;;9.63;1.88;;;;;;;10.57;100.00;102145.44;5112923;28;20043;-74
2023/10/15 14:35:37;;;;;;;5.45;1.75;;;;;;;10.75;100.00;102139.72;5113028;28;20038;-73
2023/10/15 14:38:03;;;;;;;8.07;1.80;;;;;;;11.65;100.00;102145.25;5113008;28;20509;-72
2023/10/15 14:40:28;;;;;;;7.13;1.73;;;;;;;13.91;100.00;102140.03;5112919;28;20092;-72
2023/10/15 14:42:53;;;;;;;7.63;1.70;;;;;;;16.71;100.00;102136.19;5113133;28;20373;-72